Rouyn-Noranda, Québec

9:07 AM ADT on July 03, 2015 (GMT -0300)
Rouyn-Noranda | | Change Station
CLOSE
Current Station
Airport
Location: Rouyn Airport,
Elevation: 988 ft
Nearby Weather Stations

Elev 988 ft 48.21 °N, 78.84 °W | Updated 7 minutes ago

Scattered Clouds
Scattered Clouds
57 °F
Feels Like 57 °F
N
7
Wind Variable Wind from SW

Today is forecast to be nearly the same temperature as yesterday.

Today
High -- | Low -- °F
--% Chance of Precip.
Yesterday
High -- | Low -- °F
Precip. -- in
6:20 AM 10:18 PM
Full, 97% visible
Pressure 29.90 in
Visibility 15.0 miles
Clouds Few 8000 ft
Scattered Clouds 24000 ft
Dew Point 46 °F
Humidity 67%
Rainfall 0.00 in
Snow Depth Not available.
UV 2 out of 12
Pollen Not available.
Air Quality Not available.
Flu Activity Not available.
METAR CYUY 031200Z 22006KT 15SM FEW080 SCT240 14/08 A2989 RMK AC2CI2 SLP125 DENSITY ALT 1100FT

More Conditions Fewer Conditions

Pressure 29.90 in
Visibility 15.0 miles
Clouds Few 8000 ft
Scattered Clouds 24000 ft
Dew Point 46 °F
Humidity 67%
Rainfall 0.00 in
Snow Depth Not available.
UV 2 out of 12
Pollen Not available.
Air Quality Not available.
Flu Activity Not available.
METAR CYUY 031200Z 22006KT 15SM FEW080 SCT240 14/08 A2989 RMK AC2CI2 SLP125 DENSITY ALT 1100FT

More Conditions Fewer Conditions

10-Day Weather Forecast

×

Almanac

Astronomy

Jul. 03, 2015 Rise Set
Actual Time
Civil Twilight
Nautical Twilight
Astronomical Twilight
Moon
Length of Visible Light
Length of Day
Tomorrow will be .
, % of the Moon is Illuminated

Today's Extremes

Country Highs Country Lows

Community

WunderPhotos

Upload Photos

1,834,656 photos uploaded!

WunderBlogs® & News

Nearby

Air Quality

  Air Quality AQ Index Pollutant
Not available.

Snow Depth

Station Depth Elevation

Earthquake Activity

City Distance Mag. Time & Date
Minimum magnitude displayed is 2.5.

Coastal Water Temperatures

Place Temperature

Stations

Nearby Weather Stations

Station Location Temp. Windchill Dew Point Humidity Wind Precip. Elev Updated Type